KMDJ/MDJ METAR and TAF weather

Enter ICAO airport designator
Station Type Date Time Source
KMDJ METAR 2020/03/31 07:55 UTC NOAA

KMDJ 310755Z AUTO 19012KT 6SM BR FEW015 SCT021 24/23 A2990 RMK A01


Station Type Date Time Source
KMDJ Decoded METAR 2020/03/31 07:55 UTC NOAA

Mississippi Canyon, LA, United States (KMDJ) 28-38-33N 089-47-39W
Mar 31, 2020 - 03:55 AM EDT / 2020.03.31 0755 UTC
Wind: from the S (190 degrees) at 14 MPH (12 KT):0
Visibility: 6 mile(s):0
Sky conditions: partly cloudy
Weather: mist
Temperature: 75 F (24 C)
Dew Point: 73 F (23 C)
Relative Humidity: 94%
Pressure (altimeter): 29.9 in. Hg (1012 hPa)
ob: KMDJ 310755Z AUTO 19012KT 6SM BR FEW015 SCT021 24/23 A2990 RMK A01
cycle: 8

Station Type Date Time Source
KMDJ TAF UTC NOAA

Error!

Example: see airport list